sensor_id;sensor_type;location;lat;lon;timestamp;pressure;altitude;pressure_sealevel;temperature;humidity
53619;BME280;68717;53.040;18.488;2023-09-07T00:00:12;102270.69;;;16.29;100.00
53619;BME280;68717;53.040;18.488;2023-09-07T00:00:41;102274.25;;;16.30;100.00
53619;BME280;68717;53.040;18.488;2023-09-07T00:01:15;102269.84;;;16.29;100.00
53619;BME280;68717;53.040;18.488;2023-09-07T00:01:28;102268.94;;;16.28;100.00
53619;BME280;68717;53.040;18.488;2023-09-07T00:01:40;102274.38;;;16.28;100.00
53619;BME280;68717;53.040;18.488;2023-09-07T00:01:53;102268.09;;;16.28;100.00
53619;BME280;68717;53.040;18.488;2023-09-07T00:02:06;102270.81;;;16.28;100.00
53619;BME280;68717;53.040;18.488;2023-09-07T00:02:19;102270.94;;;16.26;100.00
53619;BME280;68717;53.040;18.488;2023-09-07T00:02:44;102265.53;;;16.26;100.00
53619;BME280;68717;53.040;18.488;2023-09-07T00:02:57;102273.78;;;16.25;100.00
53619;BME280;68717;53.040;18.488;2023-09-07T00:03:13;102270.09;;;16.26;100.00
53619;BME280;68717;53.040;18.488;2023-09-07T00:03:26;102268.38;;;16.25;100.00
53619;BME280;68717;53.040;18.488;2023-09-07T00:03:39;102273.78;;;16.25;100.00
53619;BME280;68717;53.040;18.488;2023-09-07T00:03:54;102270.22;;;16.24;100.00
53619;BME280;68717;53.040;18.488;2023-09-07T00:04:07;102273.78;;;16.25;100.00
53619;BME280;68717;53.040;18.488;2023-09-07T00:04:20;102265.69;;;16.25;100.00
53619;BME280;68717;53.040;18.488;2023-09-07T00:04:35;102273.78;;;16.25;100.00
53619;BME280;68717;53.040;18.488;2023-09-07T00:04:48;102270.22;;;16.24;100.00
53619;BME280;68717;53.040;18.488;2023-09-07T00:05:02;102277.47;;;16.23;100.00
53619;BME280;68717;53.040;18.488;2023-09-07T00:05:15;102274.75;;;16.23;100.00
53619;BME280;68717;53.040;18.488;2023-09-07T00:05:27;102274.75;;;16.23;100.00
53619;BME280;68717;53.040;18.488;2023-09-07T00:05:40;102267.66;;;16.22;100.00
53619;BME280;68717;53.040;18.488;2023-09-07T00:05:53;102274.75;;;16.23;100.00
53619;BME280;68717;53.040;18.488;2023-09-07T00:06:05;102274.88;;;16.22;100.00
53619;BME280;68717;53.040;18.488;2023-09-07T00:06:18;102268.63;;;16.21;100.00
53619;BME280;68717;53.040;18.488;2023-09-07T00:06:32;102268.63;;;16.21;100.00
53619;BME280;68717;53.040;18.488;2023-09-07T00:06:44;102270.34;;;16.22;100.00
53619;BME280;68717;53.040;18.488;2023-09-07T00:06:57;102271.34;;;16.21;100.00
53619;BME280;68717;53.040;18.488;2023-09-07T00:07:11;102268.63;;;16.21;100.00
53619;BME280;68717;53.040;18.488;2023-09-07T00:07:24;102271.34;;;16.21;100.00
53619;BME280;68717;53.040;18.488;2023-09-07T00:07:37;102271.34;;;16.21;100.00
53619;BME280;68717;53.040;18.488;2023-09-07T00:07:50;102272.34;;;16.20;100.00
53619;BME280;68717;53.040;18.488;2023-09-07T00:08:03;102275.03;;;16.20;100.00
53619;BME280;68717;53.040;18.488;2023-09-07T00:08:16;102270.59;;;16.19;100.00
53619;BME280;68717;53.040;18.488;2023-09-07T00:08:30;102266.06;;;16.20;100.00
53619;BME280;68717;53.040;18.488;2023-09-07T00:08:45;102267.91;;;16.19;100.00
53619;BME280;68717;53.040;18.488;2023-09-07T00:08:57;102267.06;;;16.19;100.00
53619;BME280;68717;53.040;18.488;2023-09-07T00:09:10;102268.91;;;16.18;100.00
53619;BME280;68717;53.040;18.488;2023-09-07T00:09:23;102266.19;;;16.18;100.00
53619;BME280;68717;53.040;18.488;2023-09-07T00:09:36;102269.88;;;16.17;100.00
53619;BME280;68717;53.040;18.488;2023-09-07T00:09:49;102272.59;;;16.17;100.00
53619;BME280;68717;53.040;18.488;2023-09-07T00:10:02;102268.06;;;16.18;100.00
53619;BME280;68717;53.040;18.488;2023-09-07T00:10:15;102273.47;;;16.18;100.00
53619;BME280;68717;53.040;18.488;2023-09-07T00:10:30;102278.00;;;16.17;100.00
53619;BME280;68717;53.040;18.488;2023-09-07T00:10:42;102276.28;;;16.16;100.00
53619;BME280;68717;53.040;18.488;2023-09-07T00:10:55;102277.16;;;16.17;100.00
53619;BME280;68717;53.040;18.488;2023-09-07T00:11:08;102275.44;;;16.16;100.00
53619;BME280;68717;53.040;18.488;2023-09-07T00:11:21;102273.72;;;16.15;100.00
53619;BME280;68717;53.040;18.488;2023-09-07T00:11:34;102273.72;;;16.15;100.00
53619;BME280;68717;53.040;18.488;2023-09-07T00:11:46;102271.00;;;16.15;100.00
53619;BME280;68717;53.040;18.488;2023-09-07T00:12:00;102270.16;;;16.14;100.00
53619;BME280;68717;53.040;18.488;2023-09-07T00:12:14;102276.53;;;16.13;100.00
53619;BME280;68717;53.040;18.488;2023-09-07T00:12:26;102271.13;;;16.13;100.00
53619;BME280;68717;53.040;18.488;2023-09-07T00:12:39;102272.13;;;16.12;100.00
53619;BME280;68717;53.040;18.488;2023-09-07T00:12:51;102275.69;;;16.13;100.00
53619;BME280;68717;53.040;18.488;2023-09-07T00:13:04;102269.44;;;16.12;100.00
53619;BME280;68717;53.040;18.488;2023-09-07T00:13:17;102272.13;;;16.12;100.00
53619;BME280;68717;53.040;18.488;2023-09-07T00:13:29;102274.00;;;16.12;100.00
53619;BME280;68717;53.040;18.488;2023-09-07T00:13:43;102274.09;;;16.10;100.00
53619;BME280;68717;53.040;18.488;2023-09-07T00:13:56;102271.28;;;16.12;100.00
53619;BME280;68717;53.040;18.488;2023-09-07T00:14:11;102277.66;;;16.11;100.00
53619;BME280;68717;53.040;18.488;2023-09-07T00:14:24;102274.09;;;16.10;100.00
53619;BME280;68717;53.040;18.488;2023-09-07T00:14:36;102271.41;;;16.10;100.00
53619;BME280;68717;53.040;18.488;2023-09-07T00:14:49;102271.41;;;16.10;100.00
53619;BME280;68717;53.040;18.488;2023-09-07T00:15:02;102277.66;;;16.11;100.00
53619;BME280;68717;53.040;18.488;2023-09-07T00:15:18;102267.84;;;16.10;100.00
53619;BME280;68717;53.040;18.488;2023-09-07T00:15:35;102277.81;;;16.09;100.00
53619;BME280;68717;53.040;18.488;2023-09-07T00:15:48;102272.41;;;16.09;100.00
53619;BME280;68717;53.040;18.488;2023-09-07T00:16:02;102273.38;;;16.08;100.00
53619;BME280;68717;53.040;18.488;2023-09-07T00:16:15;102270.69;;;16.08;100.00
53619;BME280;68717;53.040;18.488;2023-09-07T00:16:31;102274.22;;;16.09;100.00
53619;BME280;68717;53.040;18.488;2023-09-07T00:16:46;102271.69;;;16.07;100.00
53619;BME280;68717;53.040;18.488;2023-09-07T00:16:59;102274.38;;;16.07;100.00
53619;BME280;68717;53.040;18.488;2023-09-07T00:17:12;102270.81;;;16.07;100.00
53619;BME280;68717;53.040;18.488;2023-09-07T00:17:25;102275.34;;;16.06;100.00
53619;BME280;68717;53.040;18.488;2023-09-07T00:17:38;102271.69;;;16.07;100.00
53619;BME280;68717;53.040;18.488;2023-09-07T00:17:52;102273.50;;;16.07;100.00
53619;BME280;68717;53.040;18.488;2023-09-07T00:18:05;102269.09;;;16.06;100.00
53619;BME280;68717;53.040;18.488;2023-09-07T00:18:18;102274.50;;;16.06;100.00
53619;BME280;68717;53.040;18.488;2023-09-07T00:18:32;102271.94;;;16.04;100.00
53619;BME280;68717;53.040;18.488;2023-09-07T00:18:44;102272.66;;;16.06;100.00
53619;BME280;68717;53.040;18.488;2023-09-07T00:18:57;102268.25;;;16.05;100.00
53619;BME280;68717;53.040;18.488;2023-09-07T00:19:10;102271.94;;;16.04;100.00
53619;BME280;68717;53.040;18.488;2023-09-07T00:19:22;102276.47;;;16.04;100.00
53619;BME280;68717;53.040;18.488;2023-09-07T00:19:35;102271.94;;;16.04;100.00
53619;BME280;68717;53.040;18.488;2023-09-07T00:19:49;102275.63;;;16.03;100.00
53619;BME280;68717;53.040;18.488;2023-09-07T00:20:03;102271.19;;;16.02;100.00
53619;BME280;68717;53.040;18.488;2023-09-07T00:20:22;102278.34;;;16.03;100.00
53619;BME280;68717;53.040;18.488;2023-09-07T00:20:37;102272.19;;;16.01;100.00
53619;BME280;68717;53.040;18.488;2023-09-07T00:20:50;102269.50;;;16.01;100.00
53619;BME280;68717;53.040;18.488;2023-09-07T00:21:03;102273.19;;;16.00;100.00
53619;BME280;68717;53.040;18.488;2023-09-07T00:21:16;102270.47;;;16.00;100.00
53619;BME280;68717;53.040;18.488;2023-09-07T00:21:28;102269.63;;;15.99;100.00
53619;BME280;68717;53.040;18.488;2023-09-07T00:21:41;102272.44;;;15.98;100.00
53619;BME280;68717;53.040;18.488;2023-09-07T00:21:54;102279.59;;;15.99;100.00
53619;BME280;68717;53.040;18.488;2023-09-07T00:22:06;102273.44;;;15.97;100.00
53619;BME280;68717;53.040;18.488;2023-09-07T00:22:19;102265.34;;;15.97;100.00
53619;BME280;68717;53.040;18.488;2023-09-07T00:22:32;102276.16;;;15.97;100.00
53619;BME280;68717;53.040;18.488;2023-09-07T00:22:45;102270.75;;;15.97;100.00
53619;BME280;68717;53.040;18.488;2023-09-07T00:22:58;102278.00;;;15.96;100.00
53619;BME280;68717;53.040;18.488;2023-09-07T00:23:10;102269.91;;;15.96;100.00
53619;BME280;68717;53.040;18.488;2023-09-07T00:23:24;102277.13;;;15.96;100.00
53619;BME280;68717;53.040;18.488;2023-09-07T00:23:36;102273.56;;;15.95;100.00
53619;BME280;68717;53.040;18.488;2023-09-07T00:23:49;102271.00;;;15.94;100.00
53619;BME280;68717;53.040;18.488;2023-09-07T00:24:03;102278.13;;;15.95;100.00
53619;BME280;68717;53.040;18.488;2023-09-07T00:24:17;102276.44;;;15.94;100.00
53619;BME280;68717;53.040;18.488;2023-09-07T00:24:30;102276.44;;;15.94;100.00
53619;BME280;68717;53.040;18.488;2023-09-07T00:24:43;102276.44;;;15.94;100.00
53619;BME280;68717;53.040;18.488;2023-09-07T00:24:57;102278.25;;;15.93;100.00
53619;BME280;68717;53.040;18.488;2023-09-07T00:25:10;102277.41;;;15.93;100.00
53619;BME280;68717;53.040;18.488;2023-09-07T00:25:22;102272.00;;;15.93;100.00
53619;BME280;68717;53.040;18.488;2023-09-07T00:25:35;102271.13;;;15.92;100.00
53619;BME280;68717;53.040;18.488;2023-09-07T00:25:49;102273.00;;;15.92;100.00
53619;BME280;68717;53.040;18.488;2023-09-07T00:26:01;102281.97;;;15.92;100.00
53619;BME280;68717;53.040;18.488;2023-09-07T00:26:14;102274.69;;;15.93;100.00
53619;BME280;68717;53.040;18.488;2023-09-07T00:26:27;102280.09;;;15.93;100.00
53619;BME280;68717;53.040;18.488;2023-09-07T00:26:39;102278.41;;;15.92;100.00
53619;BME280;68717;53.040;18.488;2023-09-07T00:26:52;102275.69;;;15.92;100.00
53619;BME280;68717;53.040;18.488;2023-09-07T00:27:04;102280.22;;;15.91;100.00
53619;BME280;68717;53.040;18.488;2023-09-07T00:27:18;102273.00;;;15.92;100.00
53619;BME280;68717;53.040;18.488;2023-09-07T00:27:31;102272.09;;;15.91;100.00
53619;BME280;68717;53.040;18.488;2023-09-07T00:27:43;102275.69;;;15.92;100.00
53619;BME280;68717;53.040;18.488;2023-09-07T00:27:56;102272.09;;;15.91;100.00
53619;BME280;68717;53.040;18.488;2023-09-07T00:28:09;102273.84;;;15.92;100.00
53619;BME280;68717;53.040;18.488;2023-09-07T00:28:22;102273.97;;;15.91;100.00
53619;BME280;68717;53.040;18.488;2023-09-07T00:28:35;102273.97;;;15.91;100.00
53619;BME280;68717;53.040;18.488;2023-09-07T00:28:47;102268.56;;;15.91;100.00
53619;BME280;68717;53.040;18.488;2023-09-07T00:29:00;102274.97;;;15.90;100.00
53619;BME280;68717;53.040;18.488;2023-09-07T00:29:13;102276.66;;;15.91;100.00
53619;BME280;68717;53.040;18.488;2023-09-07T00:29:25;102275.81;;;15.90;100.00
53619;BME280;68717;53.040;18.488;2023-09-07T00:29:38;102269.56;;;15.90;100.00
53619;BME280;68717;53.040;18.488;2023-09-07T00:29:51;102280.38;;;15.90;100.00
53619;BME280;68717;53.040;18.488;2023-09-07T00:30:05;102274.97;;;15.90;100.00
53619;BME280;68717;53.040;18.488;2023-09-07T00:30:21;102275.94;;;15.89;100.00
53619;BME280;68717;53.040;18.488;2023-09-07T00:30:34;102273.22;;;15.89;100.00
53619;BME280;68717;53.040;18.488;2023-09-07T00:30:46;102272.38;;;15.88;100.00
53619;BME280;68717;53.040;18.488;2023-09-07T00:30:59;102271.53;;;15.88;100.00
53619;BME280;68717;53.040;18.488;2023-09-07T00:31:11;102274.25;;;15.88;100.00
53619;BME280;68717;53.040;18.488;2023-09-07T00:31:24;102278.75;;;15.87;100.00
53619;BME280;68717;53.040;18.488;2023-09-07T00:31:37;102266.97;;;15.88;100.00
53619;BME280;68717;53.040;18.488;2023-09-07T00:31:49;102276.94;;;15.88;100.00
53619;BME280;68717;53.040;18.488;2023-09-07T00:32:03;102271.53;;;15.88;100.00
53619;BME280;68717;53.040;18.488;2023-09-07T00:32:15;102274.25;;;15.88;100.00
53619;BME280;68717;53.040;18.488;2023-09-07T00:32:28;102285.06;;;15.88;100.00
53619;BME280;68717;53.040;18.488;2023-09-07T00:32:42;102279.66;;;15.88;100.00
53619;BME280;68717;53.040;18.488;2023-09-07T00:32:55;102280.63;;;15.87;100.00
53619;BME280;68717;53.040;18.488;2023-09-07T00:33:09;102275.38;;;15.85;100.00
53619;BME280;68717;53.040;18.488;2023-09-07T00:33:21;102274.34;;;15.86;100.00
53619;BME280;68717;53.040;18.488;2023-09-07T00:33:34;102275.38;;;15.85;100.00
53619;BME280;68717;53.040;18.488;2023-09-07T00:33:47;102273.50;;;15.86;100.00
53619;BME280;68717;53.040;18.488;2023-09-07T00:33:59;102274.47;;;15.85;100.00
53619;BME280;68717;53.040;18.488;2023-09-07T00:34:13;102279.88;;;15.85;100.00
53619;BME280;68717;53.040;18.488;2023-09-07T00:34:25;102273.75;;;15.82;100.00
53619;BME280;68717;53.040;18.488;2023-09-07T00:34:38;102277.34;;;15.83;100.00
53619;BME280;68717;53.040;18.488;2023-09-07T00:34:51;102272.78;;;15.84;100.00
53619;BME280;68717;53.040;18.488;2023-09-07T00:35:05;102273.75;;;15.82;100.00
53619;BME280;68717;53.040;18.488;2023-09-07T00:35:17;102278.31;;;15.82;100.00
53619;BME280;68717;53.040;18.488;2023-09-07T00:35:30;102270.19;;;15.82;100.00
53619;BME280;68717;53.040;18.488;2023-09-07T00:35:43;102277.47;;;15.81;100.00
53619;BME280;68717;53.040;18.488;2023-09-07T00:35:56;102277.47;;;15.81;100.00
53619;BME280;68717;53.040;18.488;2023-09-07T00:36:09;102278.44;;;15.80;100.00
53619;BME280;68717;53.040;18.488;2023-09-07T00:36:21;102276.59;;;15.81;100.00
53619;BME280;68717;53.040;18.488;2023-09-07T00:36:34;102274.03;;;15.79;100.00
53619;BME280;68717;53.040;18.488;2023-09-07T00:36:47;102274.88;;;15.80;100.00
53619;BME280;68717;53.040;18.488;2023-09-07T00:37:00;102275.72;;;15.80;100.00
53619;BME280;68717;53.040;18.488;2023-09-07T00:37:13;102274.03;;;15.79;100.00
53619;BME280;68717;53.040;18.488;2023-09-07T00:37:26;102278.59;;;15.79;100.00
53619;BME280;68717;53.040;18.488;2023-09-07T00:37:38;102272.28;;;15.78;100.00
53619;BME280;68717;53.040;18.488;2023-09-07T00:37:51;102276.84;;;15.78;100.00
53619;BME280;68717;53.040;18.488;2023-09-07T00:38:06;102270.59;;;15.77;100.00
53619;BME280;68717;53.040;18.488;2023-09-07T00:38:19;102277.84;;;15.77;100.00
53619;BME280;68717;53.040;18.488;2023-09-07T00:38:31;102269.72;;;15.77;100.00
53619;BME280;68717;53.040;18.488;2023-09-07T00:38:44;102279.69;;;15.76;100.00
53619;BME280;68717;53.040;18.488;2023-09-07T00:38:57;102283.38;;;15.75;100.00
53619;BME280;68717;53.040;18.488;2023-09-07T00:39:09;102266.31;;;15.75;100.00
53619;BME280;68717;53.040;18.488;2023-09-07T00:39:22;102273.56;;;15.74;100.00
53619;BME280;68717;53.040;18.488;2023-09-07T00:39:35;102276.25;;;15.74;100.00
53619;BME280;68717;53.040;18.488;2023-09-07T00:39:47;102280.66;;;15.75;100.00
53619;BME280;68717;53.040;18.488;2023-09-07T00:40:00;102281.66;;;15.74;100.00
53619;BME280;68717;53.040;18.488;2023-09-07T00:40:14;102287.09;;;15.74;100.00
53619;BME280;68717;53.040;18.488;2023-09-07T00:40:26;102282.66;;;15.73;100.00
53619;BME280;68717;53.040;18.488;2023-09-07T00:40:42;102283.50;;;15.74;100.00
53619;BME280;68717;53.040;18.488;2023-09-07T00:40:55;102274.53;;;15.73;100.00
53619;BME280;68717;53.040;18.488;2023-09-07T00:41:08;102279.94;;;15.73;100.00
53619;BME280;68717;53.040;18.488;2023-09-07T00:41:20;102285.34;;;15.73;100.00
53619;BME280;68717;53.040;18.488;2023-09-07T00:41:33;102282.66;;;15.73;100.00
53619;BME280;68717;53.040;18.488;2023-09-07T00:41:46;102278.09;;;15.74;100.00
53619;BME280;68717;53.040;18.488;2023-09-07T00:41:59;102282.66;;;15.73;100.00
53619;BME280;68717;53.040;18.488;2023-09-07T00:42:12;102285.34;;;15.73;100.00
53619;BME280;68717;53.040;18.488;2023-09-07T00:42:24;102282.66;;;15.73;100.00
53619;BME280;68717;53.040;18.488;2023-09-07T00:42:37;102282.75;;;15.72;100.00
53619;BME280;68717;53.040;18.488;2023-09-07T00:42:49;102283.66;;;15.72;100.00
53619;BME280;68717;53.040;18.488;2023-09-07T00:43:02;102282.75;;;15.72;100.00
53619;BME280;68717;53.040;18.488;2023-09-07T00:43:17;102285.63;;;15.70;100.00
53619;BME280;68717;53.040;18.488;2023-09-07T00:43:29;102282.03;;;15.70;100.00
53619;BME280;68717;53.040;18.488;2023-09-07T00:43:42;102285.63;;;15.70;100.00
53619;BME280;68717;53.040;18.488;2023-09-07T00:43:55;102279.34;;;15.70;100.00
53619;BME280;68717;53.040;18.488;2023-09-07T00:44:08;102283.88;;;15.69;100.00
53619;BME280;68717;53.040;18.488;2023-09-07T00:44:21;102281.19;;;15.69;100.00
53619;BME280;68717;53.040;18.488;2023-09-07T00:44:33;102283.03;;;15.69;100.00
53619;BME280;68717;53.040;18.488;2023-09-07T00:44:46;102281.19;;;15.69;100.00
53619;BME280;68717;53.040;18.488;2023-09-07T00:44:58;102279.47;;;15.68;100.00
53619;BME280;68717;53.040;18.488;2023-09-07T00:45:11;102274.94;;;15.69;100.00
53619;BME280;68717;53.040;18.488;2023-09-07T00:45:25;102274.06;;;15.68;100.00
53619;BME280;68717;53.040;18.488;2023-09-07T00:45:38;102281.34;;;15.68;100.00
53619;BME280;68717;53.040;18.488;2023-09-07T00:45:51;102282.19;;;15.68;100.00
53619;BME280;68717;53.040;18.488;2023-09-07T00:46:05;102282.19;;;15.68;100.00
53619;BME280;68717;53.040;18.488;2023-09-07T00:46:21;102276.78;;;15.68;100.00
53619;BME280;68717;53.040;18.488;2023-09-07T00:46:34;102279.47;;;15.68;100.00
53619;BME280;68717;53.040;18.488;2023-09-07T00:46:47;102276.78;;;15.68;100.00
53619;BME280;68717;53.040;18.488;2023-09-07T00:47:00;102284.03;;;15.68;100.00
53619;BME280;68717;53.040;18.488;2023-09-07T00:47:12;102283.16;;;15.67;100.00
53619;BME280;68717;53.040;18.488;2023-09-07T00:47:26;102278.75;;;15.66;100.00
53619;BME280;68717;53.040;18.488;2023-09-07T00:47:39;102278.75;;;15.66;100.00
53619;BME280;68717;53.040;18.488;2023-09-07T00:47:52;102278.75;;;15.66;100.00
53619;BME280;68717;53.040;18.488;2023-09-07T00:48:07;102276.03;;;15.66;100.00
53619;BME280;68717;53.040;18.488;2023-09-07T00:48:20;102277.91;;;15.66;100.00
53619;BME280;68717;53.040;18.488;2023-09-07T00:48:34;102275.19;;;15.66;100.00
53619;BME280;68717;53.040;18.488;2023-09-07T00:48:47;102278.00;;;15.64;100.00
53619;BME280;68717;53.040;18.488;2023-09-07T00:49:00;102278.88;;;15.65;100.00
53619;BME280;68717;53.040;18.488;2023-09-07T00:49:14;102273.47;;;15.65;100.00
53619;BME280;68717;53.040;18.488;2023-09-07T00:49:27;102274.47;;;15.64;100.00
53619;BME280;68717;53.040;18.488;2023-09-07T00:49:39;102281.69;;;15.63;100.00
53619;BME280;68717;53.040;18.488;2023-09-07T00:49:52;102274.47;;;15.64;100.00
53619;BME280;68717;53.040;18.488;2023-09-07T00:50:06;102277.16;;;15.64;100.00
53619;BME280;68717;53.040;18.488;2023-09-07T00:50:21;102278.13;;;15.63;100.00
53619;BME280;68717;53.040;18.488;2023-09-07T00:50:34;102280.00;;;15.62;100.00
53619;BME280;68717;53.040;18.488;2023-09-07T00:50:46;102274.59;;;15.62;100.00
53619;BME280;68717;53.040;18.488;2023-09-07T00:50:59;102279.13;;;15.62;100.00
53619;BME280;68717;53.040;18.488;2023-09-07T00:51:12;102277.28;;;15.62;100.00
53619;BME280;68717;53.040;18.488;2023-09-07T00:51:24;102279.13;;;15.62;100.00
53619;BME280;68717;53.040;18.488;2023-09-07T00:51:37;102279.13;;;15.62;100.00
53619;BME280;68717;53.040;18.488;2023-09-07T00:51:50;102273.84;;;15.60;100.00
53619;BME280;68717;53.040;18.488;2023-09-07T00:52:04;102277.41;;;15.60;100.00
53619;BME280;68717;53.040;18.488;2023-09-07T00:52:18;102273.00;;;15.59;100.00
53619;BME280;68717;53.040;18.488;2023-09-07T00:52:32;102277.56;;;15.59;100.00
53619;BME280;68717;53.040;18.488;2023-09-07T00:52:47;102282.97;;;15.59;100.00
53619;BME280;68717;53.040;18.488;2023-09-07T00:52:59;102274.84;;;15.59;100.00
53619;BME280;68717;53.040;18.488;2023-09-07T00:53:14;102281.22;;;15.58;100.00
53619;BME280;68717;53.040;18.488;2023-09-07T00:53:27;102276.81;;;15.57;100.00
53619;BME280;68717;53.040;18.488;2023-09-07T00:53:40;102275.81;;;15.58;100.00
53619;BME280;68717;53.040;18.488;2023-09-07T00:53:54;102278.53;;;15.58;100.00
53619;BME280;68717;53.040;18.488;2023-09-07T00:54:07;102278.63;;;15.56;100.00
53619;BME280;68717;53.040;18.488;2023-09-07T00:54:20;102276.81;;;15.57;100.00
53619;BME280;68717;53.040;18.488;2023-09-07T00:54:33;102278.53;;;15.58;100.00
53619;BME280;68717;53.040;18.488;2023-09-07T00:54:46;102274.97;;;15.57;100.00
53619;BME280;68717;53.040;18.488;2023-09-07T00:54:59;102276.81;;;15.57;100.00
53619;BME280;68717;53.040;18.488;2023-09-07T00:55:14;102283.06;;;15.57;100.00
53619;BME280;68717;53.040;18.488;2023-09-07T00:55:27;102284.94;;;15.57;100.00
53619;BME280;68717;53.040;18.488;2023-09-07T00:55:40;102277.78;;;15.56;100.00
53619;BME280;68717;53.040;18.488;2023-09-07T00:55:54;102282.34;;;15.55;100.00
53619;BME280;68717;53.040;18.488;2023-09-07T00:56:08;102278.63;;;15.56;100.00
53619;BME280;68717;53.040;18.488;2023-09-07T00:56:21;102276.09;;;15.55;100.00
53619;BME280;68717;53.040;18.488;2023-09-07T00:56:35;102281.50;;;15.55;100.00
53619;BME280;68717;53.040;18.488;2023-09-07T00:56:48;102276.09;;;15.55;100.00
53619;BME280;68717;53.040;18.488;2023-09-07T00:57:00;102281.50;;;15.55;100.00
53619;BME280;68717;53.040;18.488;2023-09-07T00:57:13;102281.50;;;15.55;100.00
53619;BME280;68717;53.040;18.488;2023-09-07T00:57:26;102274.31;;;15.54;100.00
53619;BME280;68717;53.040;18.488;2023-09-07T00:57:39;102274.31;;;15.54;100.00
53619;BME280;68717;53.040;18.488;2023-09-07T00:57:55;102276.19;;;15.53;100.00
53619;BME280;68717;53.040;18.488;2023-09-07T00:58:08;102274.31;;;15.54;100.00
53619;BME280;68717;53.040;18.488;2023-09-07T00:58:21;102273.47;;;15.53;100.00
53619;BME280;68717;53.040;18.488;2023-09-07T00:58:34;102278.03;;;15.53;100.00
53619;BME280;68717;53.040;18.488;2023-09-07T00:58:46;102277.16;;;15.52;100.00
53619;BME280;68717;53.040;18.488;2023-09-07T00:59:00;102279.84;;;15.52;100.00
53619;BME280;68717;53.040;18.488;2023-09-07T00:59:13;102277.16;;;15.52;100.00
53619;BME280;68717;53.040;18.488;2023-09-07T00:59:27;102277.16;;;15.52;100.00
53619;BME280;68717;53.040;18.488;2023-09-07T00:59:40;102276.28;;;15.52;100.00
53619;BME280;68717;53.040;18.488;2023-09-07T00:59:53;102273.59;;;15.52;100.00
53619;BME280;68717;53.040;18.488;2023-09-07T01:00:07;102281.69;;;15.52;100.00
53619;BME280;68717;53.040;18.488;2023-09-07T01:00:21;102279.16;;;15.50;100.00
53619;BME280;68717;53.040;18.488;2023-09-07T01:00:34;102275.56;;;15.50;100.00
53619;BME280;68717;53.040;18.488;2023-09-07T01:00:47;102277.41;;;15.49;100.00
53619;BME280;68717;53.040;18.488;2023-09-07T01:01:00;102272.84;;;15.50;100.00
53619;BME280;68717;53.040;18.488;2023-09-07T01:01:14;102270.16;;;15.50;100.00
53619;BME280;68717;53.040;18.488;2023-09-07T01:01:27;102277.41;;;15.49;100.00
53619;BME280;68717;53.040;18.488;2023-09-07T01:01:40;102272.00;;;15.49;100.00
53619;BME280;68717;53.040;18.488;2023-09-07T01:01:54;102276.56;;;15.49;100.00
53619;BME280;68717;53.040;18.488;2023-09-07T01:02:07;102273.84;;;15.49;100.00
53619;BME280;68717;53.040;18.488;2023-09-07T01:02:19;102280.22;;;15.48;100.00
53619;BME280;68717;53.040;18.488;2023-09-07T01:02:32;102274.72;;;15.49;100.00
53619;BME280;68717;53.040;18.488;2023-09-07T01:02:45;102273.84;;;15.49;100.00
53619;BME280;68717;53.040;18.488;2023-09-07T01:02:58;102272.00;;;15.49;100.00
53619;BME280;68717;53.040;18.488;2023-09-07T01:03:12;102276.56;;;15.49;100.00
53619;BME280;68717;53.040;18.488;2023-09-07T01:03:26;102271.28;;;15.47;100.00
53619;BME280;68717;53.040;18.488;2023-09-07T01:03:39;102270.31;;;15.48;100.00
53619;BME280;68717;53.040;18.488;2023-09-07T01:03:52;102275.72;;;15.48;100.00
53619;BME280;68717;53.040;18.488;2023-09-07T01:04:05;102271.28;;;15.47;100.00
53619;BME280;68717;53.040;18.488;2023-09-07T01:04:19;102275.72;;;15.48;100.00
53619;BME280;68717;53.040;18.488;2023-09-07T01:04:31;102274.81;;;15.48;100.00
53619;BME280;68717;53.040;18.488;2023-09-07T01:04:44;102274.09;;;15.46;100.00
53619;BME280;68717;53.040;18.488;2023-09-07T01:04:57;102275.84;;;15.47;100.00
53619;BME280;68717;53.040;18.488;2023-09-07T01:05:10;102277.69;;;15.46;100.00
53619;BME280;68717;53.040;18.488;2023-09-07T01:05:27;102269.69;;;15.45;100.00
53619;BME280;68717;53.040;18.488;2023-09-07T01:05:49;102275.09;;;15.45;100.00
53619;BME280;68717;53.040;18.488;2023-09-07T01:06:15;102275.94;;;15.45;100.00
53619;BME280;68717;53.040;18.488;2023-09-07T01:06:32;102268.84;;;15.44;100.00
53619;BME280;68717;53.040;18.488;2023-09-07T01:06:51;102272.50;;;15.43;100.00
53619;BME280;68717;53.040;18.488;2023-09-07T01:07:09;102272.50;;;15.43;100.00
53619;BME280;68717;53.040;18.488;2023-09-07T01:07:31;102267.97;;;15.44;100.00
53619;BME280;68717;53.040;18.488;2023-09-07T01:07:47;102277.06;;;15.43;100.00
53619;BME280;68717;53.040;18.488;2023-09-07T01:08:06;102277.06;;;15.43;100.00
53619;BME280;68717;53.040;18.488;2023-09-07T01:08:24;102273.50;;;15.42;100.00
53619;BME280;68717;53.040;18.488;2023-09-07T01:08:42;102273.50;;;15.42;100.00
53619;BME280;68717;53.040;18.488;2023-09-07T01:09:00;102276.22;;;15.42;100.00
53619;BME280;68717;53.040;18.488;2023-09-07T01:09:16;102268.97;;;15.43;100.00